Chadron, Nebraska
Current Conditions -  °F | °C
As of 10:53 PM on Sunday 19 Oct 2014 (Local Time) from KCDR Reporting Station
Clear Clear  
Wind Chill: 39°   Ceiling: Unl
Heat Index: 43°   Visibility: 10mi
Dew Point: 39°   Wind: 6mph
Humidity: 86%   Direction: 220°SW
Pressure: 30.1"   Gusts: NA
Location:  42.83°N, 103°W
Report Text: KCDR 200453Z AUTO 22005KT 10SM CLR 06/04 A3010 RMK AO2 SLP193 T00610039
Loading
Personal Weather Stations






























Interactive Weather Map
Tropical Storm Tracking
New forecast layout! Learn more

10-Day Weather Forecast

Advertisements
Track Severe Weather on mobile